sensor_id;sensor_type;location;lat;lon;timestamp;temperature;humidity
51021;DHT22;38907;45.562;8.856;2023-01-15T00:03:09;7.20;99.90
51021;DHT22;38907;45.562;8.856;2023-01-15T00:08:11;7.20;99.90
51021;DHT22;38907;45.562;8.856;2023-01-15T00:13:14;7.10;99.90
51021;DHT22;38907;45.562;8.856;2023-01-15T00:18:16;7.10;99.90
51021;DHT22;38907;45.562;8.856;2023-01-15T00:23:18;7.20;99.90
51021;DHT22;38907;45.562;8.856;2023-01-15T00:28:35;7.10;99.90
51021;DHT22;38907;45.562;8.856;2023-01-15T00:33:37;7.10;99.90
51021;DHT22;38907;45.562;8.856;2023-01-15T00:38:39;7.10;99.90
51021;DHT22;38907;45.562;8.856;2023-01-15T00:43:42;7.10;99.90
51021;DHT22;38907;45.562;8.856;2023-01-15T00:48:44;7.20;99.90
51021;DHT22;38907;45.562;8.856;2023-01-15T00:53:46;7.10;99.90
51021;DHT22;38907;45.562;8.856;2023-01-15T00:58:49;7.10;99.90
51021;DHT22;38907;45.562;8.856;2023-01-15T01:03:51;7.10;99.90
51021;DHT22;38907;45.562;8.856;2023-01-15T01:08:54;7.10;99.90
51021;DHT22;38907;45.562;8.856;2023-01-15T01:13:58;7.20;99.90
51021;DHT22;38907;45.562;8.856;2023-01-15T01:19:04;7.20;99.90
51021;DHT22;38907;45.562;8.856;2023-01-15T01:24:07;7.20;99.90
51021;DHT22;38907;45.562;8.856;2023-01-15T01:29:11;7.20;99.90
51021;DHT22;38907;45.562;8.856;2023-01-15T01:34:13;7.10;99.90
51021;DHT22;38907;45.562;8.856;2023-01-15T01:39:17;7.00;99.90
51021;DHT22;38907;45.562;8.856;2023-01-15T01:44:58;7.00;99.90
51021;DHT22;38907;45.562;8.856;2023-01-15T01:50:04;6.90;99.90
51021;DHT22;38907;45.562;8.856;2023-01-15T01:55:08;6.80;99.90
51021;DHT22;38907;45.562;8.856;2023-01-15T02:00:13;6.80;99.90
51021;DHT22;38907;45.562;8.856;2023-01-15T02:05:20;6.80;99.90
51021;DHT22;38907;45.562;8.856;2023-01-15T02:10:24;6.90;99.90
51021;DHT22;38907;45.562;8.856;2023-01-15T02:15:31;6.90;99.90
51021;DHT22;38907;45.562;8.856;2023-01-15T02:20:38;6.80;99.90
51021;DHT22;38907;45.562;8.856;2023-01-15T02:25:52;6.90;99.90
51021;DHT22;38907;45.562;8.856;2023-01-15T02:31:00;7.00;99.90
51021;DHT22;38907;45.562;8.856;2023-01-15T02:36:07;6.90;99.90
51021;DHT22;38907;45.562;8.856;2023-01-15T02:41:10;6.90;99.90
51021;DHT22;38907;45.562;8.856;2023-01-15T02:46:18;6.90;99.90
51021;DHT22;38907;45.562;8.856;2023-01-15T02:51:25;7.00;99.90
51021;DHT22;38907;45.562;8.856;2023-01-15T02:56:30;7.10;99.90
51021;DHT22;38907;45.562;8.856;2023-01-15T03:01:41;7.10;99.90
51021;DHT22;38907;45.562;8.856;2023-01-15T03:06:47;7.00;99.90
51021;DHT22;38907;45.562;8.856;2023-01-15T03:11:59;7.00;99.90
51021;DHT22;38907;45.562;8.856;2023-01-15T03:17:13;7.00;99.90
51021;DHT22;38907;45.562;8.856;2023-01-15T03:22:22;7.00;99.90
51021;DHT22;38907;45.562;8.856;2023-01-15T03:27:26;7.00;99.90
51021;DHT22;38907;45.562;8.856;2023-01-15T03:32:30;7.00;99.90
51021;DHT22;38907;45.562;8.856;2023-01-15T03:37:33;7.10;99.90
51021;DHT22;38907;45.562;8.856;2023-01-15T03:42:44;7.20;99.90
51021;DHT22;38907;45.562;8.856;2023-01-15T03:47:55;7.20;99.90
51021;DHT22;38907;45.562;8.856;2023-01-15T03:53:06;7.20;99.90
51021;DHT22;38907;45.562;8.856;2023-01-15T03:58:11;7.20;99.90
51021;DHT22;38907;45.562;8.856;2023-01-15T04:03:17;7.30;99.90
51021;DHT22;38907;45.562;8.856;2023-01-15T04:08:19;7.30;99.90
51021;DHT22;38907;45.562;8.856;2023-01-15T04:13:22;7.30;99.90
51021;DHT22;38907;45.562;8.856;2023-01-15T04:18:25;7.30;99.90
51021;DHT22;38907;45.562;8.856;2023-01-15T04:23:27;7.10;99.90
51021;DHT22;38907;45.562;8.856;2023-01-15T04:28:29;7.20;99.90
51021;DHT22;38907;45.562;8.856;2023-01-15T04:33:32;7.20;99.90
51021;DHT22;38907;45.562;8.856;2023-01-15T04:38:35;7.10;99.90
51021;DHT22;38907;45.562;8.856;2023-01-15T04:43:37;7.20;99.90
51021;DHT22;38907;45.562;8.856;2023-01-15T04:48:57;7.20;99.90
51021;DHT22;38907;45.562;8.856;2023-01-15T04:54:01;7.20;99.90
51021;DHT22;38907;45.562;8.856;2023-01-15T04:59:03;7.20;99.90
51021;DHT22;38907;45.562;8.856;2023-01-15T05:04:07;7.20;99.90
51021;DHT22;38907;45.562;8.856;2023-01-15T05:09:09;7.10;99.90
51021;DHT22;38907;45.562;8.856;2023-01-15T05:14:11;7.10;99.90
51021;DHT22;38907;45.562;8.856;2023-01-15T05:19:14;7.10;99.90
51021;DHT22;38907;45.562;8.856;2023-01-15T05:24:16;7.10;99.90
51021;DHT22;38907;45.562;8.856;2023-01-15T05:29:18;7.10;99.90
51021;DHT22;38907;45.562;8.856;2023-01-15T05:34:22;7.20;99.90
51021;DHT22;38907;45.562;8.856;2023-01-15T05:39:23;7.20;99.90
51021;DHT22;38907;45.562;8.856;2023-01-15T05:44:27;7.20;99.90
51021;DHT22;38907;45.562;8.856;2023-01-15T05:49:31;7.30;99.90
51021;DHT22;38907;45.562;8.856;2023-01-15T05:54:34;7.30;99.90
51021;DHT22;38907;45.562;8.856;2023-01-15T05:59:36;7.30;99.90
51021;DHT22;38907;45.562;8.856;2023-01-15T06:04:39;7.30;99.90
51021;DHT22;38907;45.562;8.856;2023-01-15T06:09:41;7.30;99.90
51021;DHT22;38907;45.562;8.856;2023-01-15T06:14:43;7.30;99.90
51021;DHT22;38907;45.562;8.856;2023-01-15T06:19:47;7.30;99.90
51021;DHT22;38907;45.562;8.856;2023-01-15T06:24:48;7.30;99.90
51021;DHT22;38907;45.562;8.856;2023-01-15T06:29:50;7.30;99.90
51021;DHT22;38907;45.562;8.856;2023-01-15T06:34:54;7.20;99.90
51021;DHT22;38907;45.562;8.856;2023-01-15T06:39:56;7.10;99.90
51021;DHT22;38907;45.562;8.856;2023-01-15T06:44:58;7.00;99.90
51021;DHT22;38907;45.562;8.856;2023-01-15T06:50:18;7.00;99.90
51021;DHT22;38907;45.562;8.856;2023-01-15T06:55:20;6.90;99.90
51021;DHT22;38907;45.562;8.856;2023-01-15T07:00:23;7.00;99.90
51021;DHT22;38907;45.562;8.856;2023-01-15T07:05:27;7.00;99.90
51021;DHT22;38907;45.562;8.856;2023-01-15T07:10:28;7.00;99.90
51021;DHT22;38907;45.562;8.856;2023-01-15T07:15:30;7.00;99.90
51021;DHT22;38907;45.562;8.856;2023-01-15T07:20:34;7.10;99.90
51021;DHT22;38907;45.562;8.856;2023-01-15T07:25:36;7.00;99.90
51021;DHT22;38907;45.562;8.856;2023-01-15T07:30:38;7.00;99.90
51021;DHT22;38907;45.562;8.856;2023-01-15T07:35:41;7.00;99.90
51021;DHT22;38907;45.562;8.856;2023-01-15T07:40:43;7.10;99.90
51021;DHT22;38907;45.562;8.856;2023-01-15T07:46:09;7.10;99.90
51021;DHT22;38907;45.562;8.856;2023-01-15T07:51:30;7.10;99.90
51021;DHT22;38907;45.562;8.856;2023-01-15T07:56:32;7.20;99.90
51021;DHT22;38907;45.562;8.856;2023-01-15T08:01:34;7.00;99.90
51021;DHT22;38907;45.562;8.856;2023-01-15T08:06:38;6.90;99.90
51021;DHT22;38907;45.562;8.856;2023-01-15T08:11:40;7.00;99.90
51021;DHT22;38907;45.562;8.856;2023-01-15T08:16:59;7.10;99.90
51021;DHT22;38907;45.562;8.856;2023-01-15T08:22:03;7.20;99.90
51021;DHT22;38907;45.562;8.856;2023-01-15T08:27:05;7.30;99.90
51021;DHT22;38907;45.562;8.856;2023-01-15T08:32:07;7.30;99.90
51021;DHT22;38907;45.562;8.856;2023-01-15T08:37:11;7.30;99.90
51021;DHT22;38907;45.562;8.856;2023-01-15T08:42:13;7.30;99.90
51021;DHT22;38907;45.562;8.856;2023-01-15T08:47:16;7.50;99.90
51021;DHT22;38907;45.562;8.856;2023-01-15T08:52:19;7.60;99.90
51021;DHT22;38907;45.562;8.856;2023-01-15T08:57:21;7.60;99.90
51021;DHT22;38907;45.562;8.856;2023-01-15T09:02:23;7.70;99.90
51021;DHT22;38907;45.562;8.856;2023-01-15T09:07:26;7.70;99.90
51021;DHT22;38907;45.562;8.856;2023-01-15T09:12:28;7.80;99.90
51021;DHT22;38907;45.562;8.856;2023-01-15T09:17:31;7.80;99.90
51021;DHT22;38907;45.562;8.856;2023-01-15T09:22:34;7.80;99.90
51021;DHT22;38907;45.562;8.856;2023-01-15T09:27:36;7.80;99.90
51021;DHT22;38907;45.562;8.856;2023-01-15T09:32:38;7.90;99.90
51021;DHT22;38907;45.562;8.856;2023-01-15T09:37:41;7.90;99.90
51021;DHT22;38907;45.562;8.856;2023-01-15T09:42:48;7.80;99.90
51021;DHT22;38907;45.562;8.856;2023-01-15T09:48:05;7.80;99.90
51021;DHT22;38907;45.562;8.856;2023-01-15T09:53:21;7.80;99.90
51021;DHT22;38907;45.562;8.856;2023-01-15T09:58:31;7.90;99.90
51021;DHT22;38907;45.562;8.856;2023-01-15T10:03:39;8.00;99.90
51021;DHT22;38907;45.562;8.856;2023-01-15T10:08:46;8.10;99.90
51021;DHT22;38907;45.562;8.856;2023-01-15T10:13:51;8.10;99.90
51021;DHT22;38907;45.562;8.856;2023-01-15T10:18:57;8.20;99.90
51021;DHT22;38907;45.562;8.856;2023-01-15T10:24:06;8.30;99.90
51021;DHT22;38907;45.562;8.856;2023-01-15T10:29:16;8.30;99.90
51021;DHT22;38907;45.562;8.856;2023-01-15T10:34:45;8.40;99.90
51021;DHT22;38907;45.562;8.856;2023-01-15T10:45:35;8.50;99.90
51021;DHT22;38907;45.562;8.856;2023-01-15T10:50:40;8.40;99.90
51021;DHT22;38907;45.562;8.856;2023-01-15T10:55:47;8.40;99.90
51021;DHT22;38907;45.562;8.856;2023-01-15T11:00:55;8.30;99.90
51021;DHT22;38907;45.562;8.856;2023-01-15T11:05:59;8.30;99.90
51021;DHT22;38907;45.562;8.856;2023-01-15T11:11:15;8.30;99.90
51021;DHT22;38907;45.562;8.856;2023-01-15T11:16:21;8.30;99.90
51021;DHT22;38907;45.562;8.856;2023-01-15T11:21:41;8.40;99.90
51021;DHT22;38907;45.562;8.856;2023-01-15T11:26:48;8.60;99.90
51021;DHT22;38907;45.562;8.856;2023-01-15T11:31:52;8.70;99.90
51021;DHT22;38907;45.562;8.856;2023-01-15T11:37:01;8.90;99.90
51021;DHT22;38907;45.562;8.856;2023-01-15T11:42:14;9.00;99.90
51021;DHT22;38907;45.562;8.856;2023-01-15T11:47:34;8.90;99.90
51021;DHT22;38907;45.562;8.856;2023-01-15T11:52:54;8.90;99.90
51021;DHT22;38907;45.562;8.856;2023-01-15T11:57:58;8.90;99.90
51021;DHT22;38907;45.562;8.856;2023-01-15T12:03:10;8.80;99.90
51021;DHT22;38907;45.562;8.856;2023-01-15T12:08:21;8.70;99.90
51021;DHT22;38907;45.562;8.856;2023-01-15T12:13:33;8.60;99.90
51021;DHT22;38907;45.562;8.856;2023-01-15T12:18:51;8.70;99.90
51021;DHT22;38907;45.562;8.856;2023-01-15T12:24:09;8.70;99.90
51021;DHT22;38907;45.562;8.856;2023-01-15T12:29:20;8.70;99.90
51021;DHT22;38907;45.562;8.856;2023-01-15T12:34:26;8.70;99.90
51021;DHT22;38907;45.562;8.856;2023-01-15T12:39:33;8.80;99.90
51021;DHT22;38907;45.562;8.856;2023-01-15T12:44:43;8.80;99.90
51021;DHT22;38907;45.562;8.856;2023-01-15T12:50:14;8.60;99.90
51021;DHT22;38907;45.562;8.856;2023-01-15T12:55:24;8.60;99.90
51021;DHT22;38907;45.562;8.856;2023-01-15T13:00:34;8.70;99.90
51021;DHT22;38907;45.562;8.856;2023-01-15T13:05:40;8.70;99.90
51021;DHT22;38907;45.562;8.856;2023-01-15T13:10:49;8.70;99.90
51021;DHT22;38907;45.562;8.856;2023-01-15T13:16:02;8.70;99.90
51021;DHT22;38907;45.562;8.856;2023-01-15T13:21:10;8.80;99.90
51021;DHT22;38907;45.562;8.856;2023-01-15T13:26:23;8.60;99.90
51021;DHT22;38907;45.562;8.856;2023-01-15T13:31:46;8.60;99.90
51021;DHT22;38907;45.562;8.856;2023-01-15T13:36:52;8.60;99.90
51021;DHT22;38907;45.562;8.856;2023-01-15T13:41:57;8.70;99.90
51021;DHT22;38907;45.562;8.856;2023-01-15T13:47:21;8.50;99.90
51021;DHT22;38907;45.562;8.856;2023-01-15T13:52:27;8.50;99.90
51021;DHT22;38907;45.562;8.856;2023-01-15T13:57:35;8.60;99.90
51021;DHT22;38907;45.562;8.856;2023-01-15T14:02:39;8.60;99.90
51021;DHT22;38907;45.562;8.856;2023-01-15T14:07:41;8.60;99.90
51021;DHT22;38907;45.562;8.856;2023-01-15T14:12:50;8.60;99.90
51021;DHT22;38907;45.562;8.856;2023-01-15T14:18:09;8.50;99.90
51021;DHT22;38907;45.562;8.856;2023-01-15T14:23:31;8.60;99.90
51021;DHT22;38907;45.562;8.856;2023-01-15T14:28:53;8.60;99.90
51021;DHT22;38907;45.562;8.856;2023-01-15T14:34:22;8.60;99.90
51021;DHT22;38907;45.562;8.856;2023-01-15T14:39:31;8.60;99.90
51021;DHT22;38907;45.562;8.856;2023-01-15T14:44:34;8.60;99.90
51021;DHT22;38907;45.562;8.856;2023-01-15T14:49:45;8.60;99.90
51021;DHT22;38907;45.562;8.856;2023-01-15T14:54:51;8.60;99.90
51021;DHT22;38907;45.562;8.856;2023-01-15T14:59:56;8.50;99.90
51021;DHT22;38907;45.562;8.856;2023-01-15T15:05:02;8.50;99.90
51021;DHT22;38907;45.562;8.856;2023-01-15T15:10:16;8.60;99.90
51021;DHT22;38907;45.562;8.856;2023-01-15T15:15:22;8.60;99.90
51021;DHT22;38907;45.562;8.856;2023-01-15T15:20:43;8.60;99.90
51021;DHT22;38907;45.562;8.856;2023-01-15T15:25:54;8.70;99.90
51021;DHT22;38907;45.562;8.856;2023-01-15T15:30:58;8.70;99.90
51021;DHT22;38907;45.562;8.856;2023-01-15T15:36:02;8.70;99.90
51021;DHT22;38907;45.562;8.856;2023-01-15T15:41:09;8.70;99.90
51021;DHT22;38907;45.562;8.856;2023-01-15T15:46:23;8.70;99.90
51021;DHT22;38907;45.562;8.856;2023-01-15T15:51:47;8.80;99.90
51021;DHT22;38907;45.562;8.856;2023-01-15T15:56:54;8.70;99.90
51021;DHT22;38907;45.562;8.856;2023-01-15T16:01:58;8.70;99.90
51021;DHT22;38907;45.562;8.856;2023-01-15T16:07:12;8.60;99.90
51021;DHT22;38907;45.562;8.856;2023-01-15T16:12:15;8.70;99.90
51021;DHT22;38907;45.562;8.856;2023-01-15T16:17:18;8.70;99.90
51021;DHT22;38907;45.562;8.856;2023-01-15T16:22:22;8.70;99.90
51021;DHT22;38907;45.562;8.856;2023-01-15T16:27:29;8.80;99.90
51021;DHT22;38907;45.562;8.856;2023-01-15T16:32:32;8.80;99.90
51021;DHT22;38907;45.562;8.856;2023-01-15T16:37:38;8.70;99.90
51021;DHT22;38907;45.562;8.856;2023-01-15T16:42:41;8.60;99.90
51021;DHT22;38907;45.562;8.856;2023-01-15T16:48:00;8.60;99.90
51021;DHT22;38907;45.562;8.856;2023-01-15T16:53:05;8.60;99.90
51021;DHT22;38907;45.562;8.856;2023-01-15T16:58:17;8.50;99.90
51021;DHT22;38907;45.562;8.856;2023-01-15T17:03:21;8.60;99.90
51021;DHT22;38907;45.562;8.856;2023-01-15T17:08:30;8.50;99.90
51021;DHT22;38907;45.562;8.856;2023-01-15T17:13:37;8.50;99.90
51021;DHT22;38907;45.562;8.856;2023-01-15T17:18:39;8.40;99.90
51021;DHT22;38907;45.562;8.856;2023-01-15T17:23:43;8.40;99.90
51021;DHT22;38907;45.562;8.856;2023-01-15T17:28:46;8.50;99.90
51021;DHT22;38907;45.562;8.856;2023-01-15T17:33:51;8.40;99.90
51021;DHT22;38907;45.562;8.856;2023-01-15T17:38:56;8.30;99.90
51021;DHT22;38907;45.562;8.856;2023-01-15T17:44:00;8.30;99.90
51021;DHT22;38907;45.562;8.856;2023-01-15T17:49:03;8.20;99.90
51021;DHT22;38907;45.562;8.856;2023-01-15T17:54:08;8.10;99.90
51021;DHT22;38907;45.562;8.856;2023-01-15T17:59:11;8.10;99.90
51021;DHT22;38907;45.562;8.856;2023-01-15T18:04:34;8.30;99.90
51021;DHT22;38907;45.562;8.856;2023-01-15T18:09:57;8.10;99.90
51021;DHT22;38907;45.562;8.856;2023-01-15T18:15:00;8.00;99.90
51021;DHT22;38907;45.562;8.856;2023-01-15T18:20:07;8.00;99.90
51021;DHT22;38907;45.562;8.856;2023-01-15T18:25:13;8.00;99.90
51021;DHT22;38907;45.562;8.856;2023-01-15T18:30:16;8.00;99.90
51021;DHT22;38907;45.562;8.856;2023-01-15T18:35:19;8.00;99.90
51021;DHT22;38907;45.562;8.856;2023-01-15T18:40:24;8.00;99.90
51021;DHT22;38907;45.562;8.856;2023-01-15T18:45:30;7.80;99.90
51021;DHT22;38907;45.562;8.856;2023-01-15T18:50:50;7.70;99.90
51021;DHT22;38907;45.562;8.856;2023-01-15T18:56:01;7.60;99.90
51021;DHT22;38907;45.562;8.856;2023-01-15T19:01:07;7.70;99.90
51021;DHT22;38907;45.562;8.856;2023-01-15T19:06:10;7.50;99.90
51021;DHT22;38907;45.562;8.856;2023-01-15T19:11:13;7.50;99.90
51021;DHT22;38907;45.562;8.856;2023-01-15T19:16:15;7.40;99.90
51021;DHT22;38907;45.562;8.856;2023-01-15T19:21:35;7.30;99.90
51021;DHT22;38907;45.562;8.856;2023-01-15T19:26:39;7.30;99.90
51021;DHT22;38907;45.562;8.856;2023-01-15T19:31:41;7.20;99.90
51021;DHT22;38907;45.562;8.856;2023-01-15T19:36:43;7.20;99.90
51021;DHT22;38907;45.562;8.856;2023-01-15T19:41:46;7.30;99.90
51021;DHT22;38907;45.562;8.856;2023-01-15T19:47:07;7.10;99.90
51021;DHT22;38907;45.562;8.856;2023-01-15T19:52:30;7.10;99.90
51021;DHT22;38907;45.562;8.856;2023-01-15T19:57:41;7.20;99.90
51021;DHT22;38907;45.562;8.856;2023-01-15T20:02:45;7.10;99.90
51021;DHT22;38907;45.562;8.856;2023-01-15T20:07:47;7.10;99.90
51021;DHT22;38907;45.562;8.856;2023-01-15T20:12:50;7.00;99.90
51021;DHT22;38907;45.562;8.856;2023-01-15T20:18:10;7.10;99.90
51021;DHT22;38907;45.562;8.856;2023-01-15T20:23:12;7.10;99.90
51021;DHT22;38907;45.562;8.856;2023-01-15T20:28:16;7.10;99.90
51021;DHT22;38907;45.562;8.856;2023-01-15T20:33:18;7.10;99.90
51021;DHT22;38907;45.562;8.856;2023-01-15T20:38:22;7.00;99.90
51021;DHT22;38907;45.562;8.856;2023-01-15T20:43:26;6.80;99.90
51021;DHT22;38907;45.562;8.856;2023-01-15T20:48:46;6.80;99.90
51021;DHT22;38907;45.562;8.856;2023-01-15T20:54:05;6.70;99.90
51021;DHT22;38907;45.562;8.856;2023-01-15T20:59:08;6.70;99.90
51021;DHT22;38907;45.562;8.856;2023-01-15T21:04:10;6.60;99.90
51021;DHT22;38907;45.562;8.856;2023-01-15T21:09:13;6.50;99.90
51021;DHT22;38907;45.562;8.856;2023-01-15T21:14:17;6.50;99.90
51021;DHT22;38907;45.562;8.856;2023-01-15T21:19:19;6.30;99.90
51021;DHT22;38907;45.562;8.856;2023-01-15T21:24:21;6.50;99.90
51021;DHT22;38907;45.562;8.856;2023-01-15T21:29:25;6.50;99.90
51021;DHT22;38907;45.562;8.856;2023-01-15T21:34:27;6.60;99.90
51021;DHT22;38907;45.562;8.856;2023-01-15T21:39:29;6.40;99.90
51021;DHT22;38907;45.562;8.856;2023-01-15T21:44:33;6.20;99.90
51021;DHT22;38907;45.562;8.856;2023-01-15T21:49:42;6.10;99.90
51021;DHT22;38907;45.562;8.856;2023-01-15T21:54:44;6.20;99.90
51021;DHT22;38907;45.562;8.856;2023-01-15T21:59:48;6.20;99.90
51021;DHT22;38907;45.562;8.856;2023-01-15T22:04:50;6.20;99.90
51021;DHT22;38907;45.562;8.856;2023-01-15T22:09:53;6.30;99.90
51021;DHT22;38907;45.562;8.856;2023-01-15T22:14:57;6.20;99.90
51021;DHT22;38907;45.562;8.856;2023-01-15T22:19:59;6.20;99.90
51021;DHT22;38907;45.562;8.856;2023-01-15T22:25:02;6.30;99.90
51021;DHT22;38907;45.562;8.856;2023-01-15T22:30:10;6.30;99.90
51021;DHT22;38907;45.562;8.856;2023-01-15T22:35:12;6.40;99.90
51021;DHT22;38907;45.562;8.856;2023-01-15T22:40:15;6.40;99.90
51021;DHT22;38907;45.562;8.856;2023-01-15T22:45:19;6.50;99.90
51021;DHT22;38907;45.562;8.856;2023-01-15T22:50:22;6.50;99.90
51021;DHT22;38907;45.562;8.856;2023-01-15T22:55:24;6.70;99.90
51021;DHT22;38907;45.562;8.856;2023-01-15T23:00:27;6.80;99.90
51021;DHT22;38907;45.562;8.856;2023-01-15T23:05:30;6.80;99.90
51021;DHT22;38907;45.562;8.856;2023-01-15T23:10:32;6.70;99.90
51021;DHT22;38907;45.562;8.856;2023-01-15T23:15:35;6.70;99.90
51021;DHT22;38907;45.562;8.856;2023-01-15T23:20:39;6.80;99.90
51021;DHT22;38907;45.562;8.856;2023-01-15T23:25:41;6.80;99.90
51021;DHT22;38907;45.562;8.856;2023-01-15T23:30:44;6.80;99.90
51021;DHT22;38907;45.562;8.856;2023-01-15T23:35:46;6.70;99.90
51021;DHT22;38907;45.562;8.856;2023-01-15T23:40:48;6.70;99.90
51021;DHT22;38907;45.562;8.856;2023-01-15T23:45:51;6.70;99.90
51021;DHT22;38907;45.562;8.856;2023-01-15T23:51:10;6.70;99.90
51021;DHT22;38907;45.562;8.856;2023-01-15T23:56:12;6.60;99.90
